Time;durP1;ratioP1;P1;durP2;ratioP2;P2;SDS_P1;SDS_P2;PMS_P1;PMS_P2;Temp;Humidity;BMP_temperature;BMP_pressure;BME280_temperature;BME280_humidity;BME280_pressure;Samples;Min_cycle;Max_cycle;Signal;HPM_P1;HPM_P2
2020/12/27 00:01:10;;;;;;;3.73;3.43;;;5.90;99.90;;;;;;5036224;28;20745;-66
2020/12/27 00:03:55;;;;;;;3.83;3.40;;;5.90;99.90;;;;;;5047149;28;20644;-67
2020/12/27 00:06:39;;;;;;;4.30;3.53;;;5.90;99.90;;;;;;5034198;28;20630;-67
2020/12/27 00:09:24;;;;;;;3.87;3.57;;;5.80;99.90;;;;;;5044759;28;20656;-67
2020/12/27 00:12:09;;;;;;;3.83;3.43;;;5.90;99.90;;;;;;5039160;28;20737;-67
2020/12/27 00:14:53;;;;;;;3.63;3.13;;;5.90;99.90;;;;;;5047994;28;20598;-67
2020/12/27 00:17:37;;;;;;;3.60;3.30;;;5.80;99.90;;;;;;5033078;28;20989;-67
2020/12/27 00:20:22;;;;;;;3.43;3.13;;;5.80;99.90;;;;;;5043356;28;20673;-67
2020/12/27 00:23:06;;;;;;;3.47;3.20;;;5.80;99.90;;;;;;5033440;28;21109;-67
2020/12/27 00:25:50;;;;;;;3.10;2.80;;;5.80;99.90;;;;;;5033955;28;20629;-67
2020/12/27 00:28:35;;;;;;;3.23;3.03;;;5.70;99.90;;;;;;5044229;28;20793;-67
2020/12/27 00:31:19;;;;;;;3.67;3.37;;;5.80;99.90;;;;;;5035746;28;20724;-67
2020/12/27 00:34:04;;;;;;;3.70;3.40;;;5.80;99.90;;;;;;5031654;28;21116;-67
2020/12/27 00:36:50;;;;;;;3.70;3.40;;;5.80;99.90;;;;;;5037290;28;20594;-67
2020/12/27 00:39:35;;;;;;;3.53;3.23;;;5.70;99.90;;;;;;5032968;28;20712;-67
2020/12/27 00:42:20;;;;;;;3.00;2.80;;;5.70;99.90;;;;;;5043980;28;21286;-67
2020/12/27 00:45:05;;;;;;;2.97;2.77;;;5.70;99.90;;;;;;5045401;28;21153;-67
2020/12/27 00:47:50;;;;;;;3.40;3.10;;;5.60;99.90;;;;;;5045216;28;20614;-67
2020/12/27 00:50:34;;;;;;;2.93;2.73;;;5.60;99.90;;;;;;5040268;28;20638;-67
2020/12/27 00:53:19;;;;;;;3.80;3.50;;;5.60;99.90;;;;;;5031651;28;20876;-67
2020/12/27 00:56:03;;;;;;;3.00;2.80;;;5.60;99.90;;;;;;5039769;28;20747;-67
2020/12/27 00:58:48;;;;;;;3.23;3.00;;;5.60;99.90;;;;;;5043911;28;20728;-67
2020/12/27 01:01:35;;;;;;;4.57;3.60;;;5.60;99.90;;;;;;5044630;28;20662;-67
2020/12/27 01:04:19;;;;;;;3.33;3.03;;;5.60;99.90;;;;;;5048411;28;20874;-67
2020/12/27 01:07:04;;;;;;;3.57;3.27;;;5.70;99.90;;;;;;5047398;28;20610;-67
2020/12/27 01:09:48;;;;;;;3.50;3.20;;;5.70;99.90;;;;;;5031680;28;20655;-68
2020/12/27 01:12:33;;;;;;;3.40;3.10;;;5.70;99.90;;;;;;5035431;28;21300;-67
2020/12/27 01:15:17;;;;;;;5.67;3.60;;;5.70;99.90;;;;;;5046162;28;20609;-67
2020/12/27 01:18:01;;;;;;;3.50;3.17;;;5.80;99.90;;;;;;5046864;28;20982;-67
2020/12/27 01:20:46;;;;;;;3.30;3.00;;;5.70;99.90;;;;;;5038753;28;20623;-67
2020/12/27 01:23:31;;;;;;;3.20;3.00;;;5.70;99.90;;;;;;5041520;28;21175;-67
2020/12/27 01:26:15;;;;;;;3.53;3.23;;;5.70;99.90;;;;;;5042442;28;21078;-67
2020/12/27 01:29:00;;;;;;;3.33;3.03;;;5.60;99.90;;;;;;5049879;28;21217;-67
2020/12/27 01:31:45;;;;;;;6.30;3.40;;;5.60;99.90;;;;;;5033173;28;20711;-67
2020/12/27 01:34:30;;;;;;;3.10;2.90;;;5.60;99.90;;;;;;5044778;28;20761;-67
2020/12/27 01:37:14;;;;;;;3.40;3.20;;;5.60;99.90;;;;;;5038998;28;20720;-67
2020/12/27 01:39:59;;;;;;;3.70;3.37;;;5.60;99.90;;;;;;5039943;28;20693;-68
2020/12/27 01:42:56;;;;;;;4.20;3.80;;;5.50;99.90;;;;;;5038942;28;20813;-67
2020/12/27 01:45:43;;;;;;;3.73;3.40;;;5.50;99.90;;;;;;5040336;28;20664;-67
2020/12/27 01:48:28;;;;;;;3.50;3.20;;;5.40;99.90;;;;;;5049591;28;20617;-67
2020/12/27 01:51:13;;;;;;;3.63;3.30;;;5.30;99.90;;;;;;5035816;28;21093;-67
2020/12/27 01:53:58;;;;;;;4.50;3.83;;;5.30;99.90;;;;;;5041257;28;20962;-67
2020/12/27 01:56:47;;;;;;;5.00;4.17;;;5.30;99.90;;;;;;5046810;28;20630;-67
2020/12/27 01:59:32;;;;;;;4.10;3.50;;;5.40;99.90;;;;;;5046523;28;20634;-67
2020/12/27 02:02:22;;;;;;;6.00;4.20;;;5.30;99.90;;;;;;5042821;28;20731;-67
2020/12/27 02:05:07;;;;;;;4.30;3.90;;;5.20;99.90;;;;;;5028447;28;20795;-67
2020/12/27 02:07:53;;;;;;;3.80;3.50;;;5.20;99.90;;;;;;5049006;28;20597;-67
2020/12/27 02:10:38;;;;;;;5.73;3.70;;;5.20;99.90;;;;;;5046740;28;20839;-67
2020/12/27 02:13:23;;;;;;;4.40;3.87;;;5.10;99.90;;;;;;5034849;28;20740;-67
2020/12/27 02:16:07;;;;;;;4.17;3.67;;;5.00;99.90;;;;;;5045648;28;20792;-67
2020/12/27 02:19:03;;;;;;;3.67;3.30;;;5.00;99.90;;;;;;5047704;28;20669;-67
2020/12/27 02:21:48;;;;;;;3.47;3.17;;;5.20;99.90;;;;;;5038362;28;20654;-67
2020/12/27 02:24:33;;;;;;;3.93;3.30;;;5.20;99.90;;;;;;5040050;28;20601;-67
2020/12/27 02:27:17;;;;;;;3.10;2.90;;;5.10;99.90;;;;;;5042969;28;20701;-67
2020/12/27 02:30:05;;;;;;;4.43;2.80;;;5.10;99.90;;;;;;5040707;28;20625;-66
2020/12/27 02:32:50;;;;;;;3.23;2.93;;;5.10;99.90;;;;;;5037985;28;20994;-67
2020/12/27 02:35:35;;;;;;;3.23;2.93;;;5.10;99.90;;;;;;5047965;28;21167;-67
2020/12/27 02:38:20;;;;;;;3.60;3.30;;;5.10;99.90;;;;;;5039030;28;20780;-67
2020/12/27 02:41:21;;;;;;;3.30;3.00;;;5.10;99.90;;;;;;5036432;28;20844;-66
2020/12/27 02:44:07;;;;;;;3.57;3.27;;;5.10;99.90;;;;;;5044200;28;20838;-66
2020/12/27 02:46:52;;;;;;;2.80;2.60;;;5.20;99.90;;;;;;5036727;28;20605;-67
2020/12/27 02:49:36;;;;;;;4.07;3.37;;;5.20;99.90;;;;;;5048439;28;20654;-67
2020/12/27 02:52:21;;;;;;;2.60;2.27;;;5.20;99.90;;;;;;5041658;28;20649;-67
2020/12/27 02:55:06;;;;;;;3.73;2.70;;;5.20;99.90;;;;;;5039263;28;20951;-66
2020/12/27 02:57:50;;;;;;;4.50;2.70;;;5.20;99.90;;;;;;5043922;28;20676;-67
2020/12/27 03:00:35;;;;;;;2.73;2.53;;;5.30;99.90;;;;;;5053872;28;20804;-67
2020/12/27 03:03:19;;;;;;;2.43;2.23;;;5.20;99.90;;;;;;5038173;28;20666;-67
2020/12/27 03:06:04;;;;;;;2.77;2.57;;;5.20;99.90;;;;;;5031806;28;20589;-67
2020/12/27 03:08:54;;;;;;;2.33;2.07;;;5.20;99.90;;;;;;5032670;28;20646;-67
2020/12/27 03:11:39;;;;;;;3.00;2.70;;;5.20;99.90;;;;;;5036293;28;20990;-67
2020/12/27 03:14:26;;;;;;;2.30;2.20;;;5.20;99.90;;;;;;5048354;28;21183;-67
2020/12/27 03:17:11;;;;;;;2.57;2.37;;;5.30;99.90;;;;;;5036336;28;20652;-67
2020/12/27 03:19:58;;;;;;;2.90;2.70;;;5.20;99.90;;;;;;5026816;23;20786;-74
2020/12/27 03:22:43;;;;;;;2.50;2.30;;;5.40;99.90;;;;;;5006536;28;20639;-74
2020/12/27 03:25:28;;;;;;;2.53;2.33;;;5.30;99.90;;;;;;5006212;28;20670;-74
2020/12/27 03:28:13;;;;;;;2.20;2.00;;;5.30;99.90;;;;;;5006602;28;20966;-73
2020/12/27 03:30:57;;;;;;;2.27;2.07;;;5.30;99.90;;;;;;4999634;28;20678;-75
2020/12/27 03:33:42;;;;;;;2.20;2.00;;;5.30;99.90;;;;;;4988170;28;20648;-75
2020/12/27 03:36:27;;;;;;;2.10;2.00;;;5.40;99.90;;;;;;4996401;28;20611;-75
2020/12/27 03:39:11;;;;;;;2.33;2.13;;;5.40;99.90;;;;;;4994537;28;20739;-74
2020/12/27 03:41:55;;;;;;;1.87;1.77;;;5.40;99.90;;;;;;4990708;28;20706;-74
2020/12/27 03:44:40;;;;;;;2.23;2.03;;;5.40;99.90;;;;;;4994696;28;21101;-74
2020/12/27 03:47:26;;;;;;;2.40;2.20;;;5.30;99.90;;;;;;4998304;28;20591;-73
2020/12/27 03:50:11;;;;;;;2.23;2.03;;;5.40;99.90;;;;;;5001218;28;20808;-74
2020/12/27 03:52:55;;;;;;;1.93;1.83;;;5.40;99.90;;;;;;4982796;28;20639;-74
2020/12/27 03:55:40;;;;;;;2.60;2.40;;;5.40;99.90;;;;;;4999266;28;20599;-74
2020/12/27 03:58:24;;;;;;;2.17;2.03;;;5.50;99.90;;;;;;4999530;28;20754;-75
2020/12/27 04:01:09;;;;;;;2.30;2.10;;;5.50;99.90;;;;;;4994594;28;21641;-74
2020/12/27 04:03:53;;;;;;;4.07;2.10;;;5.40;99.90;;;;;;5002263;28;20615;-74
2020/12/27 04:06:38;;;;;;;2.63;2.43;;;5.40;99.90;;;;;;4992761;28;20620;-74
2020/12/27 04:09:22;;;;;;;2.07;1.97;;;5.40;99.90;;;;;;4992096;28;20653;-74
2020/12/27 04:12:07;;;;;;;4.90;2.13;;;5.40;99.90;;;;;;4991587;28;20647;-75
2020/12/27 04:14:51;;;;;;;2.33;2.13;;;5.40;99.90;;;;;;4994870;28;20662;-75
2020/12/27 04:17:36;;;;;;;1.90;1.80;;;5.40;99.90;;;;;;4990552;28;20596;-73
2020/12/27 04:20:20;;;;;;;2.30;2.10;;;5.40;99.90;;;;;;4988279;28;20650;-75
2020/12/27 04:23:05;;;;;;;2.20;2.10;;;5.50;99.90;;;;;;4982280;28;21154;-74
2020/12/27 04:25:49;;;;;;;2.30;2.10;;;5.50;99.90;;;;;;4982474;28;20635;-75
2020/12/27 04:28:34;;;;;;;2.60;2.40;;;5.50;99.90;;;;;;4995356;28;20666;-74
2020/12/27 04:31:20;;;;;;;2.27;2.07;;;5.50;99.90;;;;;;4983196;28;20682;-73
2020/12/27 04:34:05;;;;;;;2.63;2.30;;;5.40;99.90;;;;;;4990880;28;20596;-73
2020/12/27 04:36:49;;;;;;;3.70;2.50;;;5.40;99.90;;;;;;5002304;28;20725;-73
2020/12/27 04:39:37;;;;;;;3.00;2.63;;;5.30;99.90;;;;;;4986540;28;21250;-75
2020/12/27 04:42:23;;;;;;;2.20;2.03;;;5.30;99.90;;;;;;4976126;28;20656;-74
2020/12/27 04:45:09;;;;;;;2.60;2.40;;;5.30;99.90;;;;;;4981049;28;20724;-74
2020/12/27 04:47:54;;;;;;;3.40;2.47;;;5.40;99.90;;;;;;4993877;28;21193;-73
2020/12/27 04:50:39;;;;;;;2.40;2.20;;;5.30;99.90;;;;;;4991076;28;20612;-74
2020/12/27 04:53:24;;;;;;;3.20;2.60;;;5.30;99.90;;;;;;4985878;28;20733;-74
2020/12/27 04:56:08;;;;;;;2.47;2.27;;;5.30;99.90;;;;;;4991571;28;20857;-74
2020/12/27 04:58:55;;;;;;;2.63;2.33;;;5.30;99.90;;;;;;4991993;28;20727;-74
2020/12/27 05:01:42;;;;;;;2.93;2.63;;;5.40;99.90;;;;;;4974786;28;20663;-74
2020/12/27 05:04:27;;;;;;;4.03;2.47;;;5.30;99.90;;;;;;4996939;28;21099;-74
2020/12/27 05:07:20;;;;;;;2.50;2.30;;;5.30;99.90;;;;;;4988123;28;20616;-74
2020/12/27 05:10:04;;;;;;;2.83;2.50;;;5.30;99.90;;;;;;4990815;28;20779;-74
2020/12/27 05:12:49;;;;;;;3.03;2.70;;;5.30;99.90;;;;;;4984052;28;20726;-74
2020/12/27 05:15:37;;;;;;;2.90;2.40;;;5.20;99.90;;;;;;4980289;28;20623;-74
2020/12/27 05:18:22;;;;;;;3.17;2.87;;;5.30;99.90;;;;;;4991158;28;20672;-74
2020/12/27 05:21:06;;;;;;;3.63;2.67;;;5.20;99.90;;;;;;4981758;28;21134;-74
2020/12/27 05:23:51;;;;;;;2.70;2.50;;;5.30;99.90;;;;;;4981207;28;21145;-74
2020/12/27 05:26:39;;;;;;;3.77;2.60;;;5.20;99.90;;;;;;4987711;28;20643;-73
2020/12/27 05:29:35;;;;;;;2.87;2.67;;;5.20;99.90;;;;;;4992914;28;20723;-74
2020/12/27 05:32:19;;;;;;;2.80;2.60;;;5.20;99.90;;;;;;4976527;28;20644;-74
2020/12/27 05:35:13;;;;;;;4.63;3.03;;;5.20;99.90;;;;;;4994641;28;20593;-74
2020/12/27 05:38:02;;;;;;;3.10;2.80;;;5.20;99.90;;;;;;4990234;28;21258;-73
2020/12/27 05:40:46;;;;;;;3.23;2.97;;;5.20;99.90;;;;;;4975248;28;21031;-73
2020/12/27 05:43:31;;;;;;;3.23;2.93;;;5.20;99.90;;;;;;4984136;28;20579;-74
2020/12/27 05:46:18;;;;;;;3.47;3.17;;;5.20;99.90;;;;;;4988644;28;20593;-73
2020/12/27 05:49:03;;;;;;;3.10;2.87;;;5.20;99.90;;;;;;4997423;28;20659;-74
2020/12/27 05:51:53;;;;;;;3.00;2.70;;;5.20;99.90;;;;;;4986592;28;21155;-73
2020/12/27 05:54:47;;;;;;;3.20;2.90;;;5.20;99.90;;;;;;4992364;28;20592;-74
2020/12/27 05:57:34;;;;;;;5.40;2.80;;;5.10;99.90;;;;;;4983309;28;21163;-75
2020/12/27 06:00:24;;;;;;;3.93;3.30;;;5.10;99.90;;;;;;4996804;28;20643;-75
2020/12/27 06:03:20;;;;;;;3.07;2.70;;;5.10;99.90;;;;;;4993850;28;21087;-73
2020/12/27 06:06:08;;;;;;;2.97;2.67;;;5.00;99.90;;;;;;4996277;28;20579;-74
2020/12/27 06:09:01;;;;;;;2.90;2.60;;;5.00;99.90;;;;;;4997682;28;21061;-74
2020/12/27 06:11:53;;;;;;;2.80;2.60;;;5.00;99.90;;;;;;4993782;28;20647;-74
2020/12/27 06:14:40;;;;;;;3.20;2.60;;;5.00;99.90;;;;;;4993798;28;20619;-73
2020/12/27 06:17:52;;;;;;;3.00;2.70;;;4.90;99.90;;;;;;4994054;28;20643;-74
2020/12/27 06:20:39;;;;;;;3.20;2.60;;;4.90;99.90;;;;;;4982099;28;20636;-74
2020/12/27 06:23:27;;;;;;;2.90;2.60;;;4.90;99.90;;;;;;4990391;28;20639;-74
2020/12/27 06:26:12;;;;;;;5.77;2.93;;;5.00;99.90;;;;;;4991118;28;20841;-73
2020/12/27 06:28:56;;;;;;;2.80;2.60;;;5.00;99.90;;;;;;4991378;28;20700;-74
2020/12/27 06:31:42;;;;;;;2.80;2.53;;;5.00;99.90;;;;;;4983387;28;20692;-74
2020/12/27 06:34:27;;;;;;;2.80;2.60;;;5.00;99.90;;;;;;5007643;28;21237;-74
2020/12/27 06:37:15;;;;;;;2.70;2.50;;;5.00;99.90;;;;;;4977882;28;20627;-74
2020/12/27 06:39:59;;;;;;;3.73;2.60;;;5.00;99.90;;;;;;4987253;28;21330;-74
2020/12/27 06:42:44;;;;;;;3.27;2.70;;;4.90;99.90;;;;;;4987260;28;20730;-74
2020/12/27 06:45:30;;;;;;;2.70;2.33;;;4.90;99.90;;;;;;4981056;28;20603;-74
2020/12/27 06:48:33;;;;;;;3.20;2.43;;;4.90;99.90;;;;;;4988285;28;20644;-74
2020/12/27 06:51:38;;;;;;;3.03;2.60;;;4.90;99.90;;;;;;4979603;28;20695;-74
2020/12/27 06:54:41;;;;;;;2.27;2.10;;;4.90;99.90;;;;;;5005229;28;21165;-74
2020/12/27 06:57:46;;;;;;;2.53;2.33;;;4.90;99.90;;;;;;4989878;28;21182;-74
2020/12/27 07:00:30;;;;;;;2.67;2.47;;;5.00;99.90;;;;;;4989491;28;20774;-74
2020/12/27 07:03:21;;;;;;;3.53;2.30;;;4.90;99.90;;;;;;4985460;28;20691;-74
2020/12/27 07:06:25;;;;;;;2.63;2.43;;;4.70;99.90;;;;;;4976185;28;20775;-74
2020/12/27 07:09:10;;;;;;;2.83;2.37;;;4.90;99.90;;;;;;4991105;28;20704;-73
2020/12/27 07:12:09;;;;;;;2.60;2.40;;;5.00;99.90;;;;;;4988013;28;20648;-74
2020/12/27 07:14:54;;;;;;;2.30;2.00;;;5.00;99.90;;;;;;4993768;28;20666;-74
2020/12/27 07:17:42;;;;;;;2.50;2.30;;;5.10;99.90;;;;;;5007232;28;20592;-74
2020/12/27 07:20:30;;;;;;;2.67;2.10;;;5.10;99.90;;;;;;4986031;28;20595;-74
2020/12/27 07:23:24;;;;;;;2.47;2.27;;;5.00;99.90;;;;;;4980375;28;20695;-74
2020/12/27 07:26:12;;;;;;;2.60;2.40;;;5.00;99.90;;;;;;4989237;28;20595;-74
2020/12/27 07:29:00;;;;;;;2.53;2.17;;;5.10;99.90;;;;;;4979262;28;21100;-74
2020/12/27 07:31:46;;;;;;;4.00;2.53;;;5.20;99.90;;;;;;4992015;28;20700;-74
2020/12/27 07:34:32;;;;;;;2.47;2.27;;;5.10;99.90;;;;;;4986087;28;20587;-74
2020/12/27 07:37:22;;;;;;;2.30;2.20;;;5.10;99.90;;;;;;4995224;28;20580;-73
2020/12/27 07:40:09;;;;;;;2.23;2.03;;;5.00;99.90;;;;;;4999760;28;20666;-74
2020/12/27 07:42:54;;;;;;;5.13;2.20;;;5.10;99.90;;;;;;4978998;28;20873;-73
2020/12/27 07:45:38;;;;;;;2.60;2.23;;;5.10;99.90;;;;;;4996238;28;20619;-73
2020/12/27 07:48:22;;;;;;;2.33;2.13;;;5.10;99.90;;;;;;4983395;28;21149;-75
2020/12/27 07:51:11;;;;;;;2.90;2.07;;;5.10;99.90;;;;;;4985998;28;20730;-74
2020/12/27 07:53:56;;;;;;;2.10;2.00;;;5.10;99.90;;;;;;5002172;28;20600;-75
2020/12/27 07:56:43;;;;;;;2.40;2.20;;;5.10;99.90;;;;;;5009376;28;20636;-73
2020/12/27 07:59:28;;;;;;;2.23;2.10;;;5.10;99.90;;;;;;4987675;28;21016;-73
2020/12/27 08:02:12;;;;;;;2.20;2.10;;;5.10;99.90;;;;;;4983781;28;20742;-74
2020/12/27 08:05:00;;;;;;;2.83;2.50;;;5.00;99.90;;;;;;4989905;28;20670;-73
2020/12/27 08:07:45;;;;;;;1.97;1.87;;;5.00;99.90;;;;;;4991335;28;20670;-76
2020/12/27 08:10:29;;;;;;;2.30;2.10;;;5.10;99.90;;;;;;4989396;28;20627;-75
2020/12/27 08:13:15;;;;;;;2.00;1.80;;;5.10;99.90;;;;;;4995259;28;20730;-75
2020/12/27 08:16:00;;;;;;;2.23;2.10;;;5.10;99.90;;;;;;4995017;28;20606;-76
2020/12/27 08:18:45;;;;;;;2.63;2.30;;;5.10;99.90;;;;;;4988152;28;20770;-75
2020/12/27 08:21:30;;;;;;;2.30;2.10;;;5.00;99.90;;;;;;4990706;28;20782;-75
2020/12/27 08:24:16;;;;;;;2.57;2.37;;;5.00;99.90;;;;;;5000875;28;20599;-76
2020/12/27 08:27:03;;;;;;;2.40;2.07;;;5.00;99.90;;;;;;4995126;28;20667;-76
2020/12/27 08:29:47;;;;;;;2.47;2.03;;;5.00;99.90;;;;;;5008210;28;20655;-76
2020/12/27 08:32:32;;;;;;;2.60;2.40;;;5.00;99.90;;;;;;4989018;28;20703;-76
2020/12/27 08:35:24;;;;;;;2.00;1.90;;;5.10;99.90;;;;;;4993680;28;20609;-76
2020/12/27 08:38:18;;;;;;;2.27;2.10;;;5.00;99.90;;;;;;4992149;28;20783;-75
2020/12/27 08:41:19;;;;;;;2.60;2.23;;;5.00;99.90;;;;;;4986688;28;20655;-75
2020/12/27 08:44:16;;;;;;;2.10;2.00;;;5.00;99.90;;;;;;5003537;28;20584;-77
2020/12/27 08:47:05;;;;;;;2.30;2.10;;;5.00;99.90;;;;;;5003537;28;20616;-76
2020/12/27 08:50:06;;;;;;;2.50;2.30;;;4.90;99.90;;;;;;5004723;28;20656;-77
2020/12/27 08:52:55;;;;;;;2.40;2.20;;;5.00;99.90;;;;;;4994280;28;20663;-76
2020/12/27 08:55:40;;;;;;;2.53;2.33;;;4.90;99.90;;;;;;5005602;28;21225;-76
2020/12/27 08:58:25;;;;;;;2.37;2.17;;;5.00;99.90;;;;;;4997757;28;20699;-75
2020/12/27 09:01:24;;;;;;;2.10;1.90;;;5.00;99.90;;;;;;4988724;28;20648;-74
2020/12/27 09:04:22;;;;;;;2.53;2.33;;;5.00;99.90;;;;;;4991371;28;21097;-74
2020/12/27 09:07:06;;;;;;;2.30;2.00;;;5.10;99.90;;;;;;4990027;28;20686;-76
2020/12/27 09:10:05;;;;;;;3.83;2.73;;;5.10;99.90;;;;;;5003170;28;20670;-77
2020/12/27 09:13:13;;;;;;;2.33;2.13;;;5.10;99.90;;;;;;4987005;28;20755;-75
2020/12/27 09:15:57;;;;;;;2.77;2.10;;;5.20;99.90;;;;;;4987987;28;20697;-76
2020/12/27 09:18:44;;;;;;;2.20;2.00;;;5.20;99.90;;;;;;5021386;23;20673;-69
2020/12/27 09:21:29;;;;;;;3.10;1.90;;;5.10;99.90;;;;;;5006413;28;21219;-70
2020/12/27 09:24:14;;;;;;;2.30;2.10;;;5.10;99.90;;;;;;5008749;28;21453;-70
2020/12/27 09:27:06;;;;;;;2.00;1.80;;;5.10;99.90;;;;;;5003277;28;20697;-72
2020/12/27 09:30:02;;;;;;;2.23;2.03;;;5.10;99.90;;;;;;5018892;28;20744;-71
2020/12/27 09:32:47;;;;;;;2.40;2.20;;;5.10;99.90;;;;;;5024658;28;20744;-73
2020/12/27 09:35:32;;;;;;;3.57;2.20;;;5.10;99.90;;;;;;5022970;28;20652;-72
2020/12/27 09:38:28;;;;;;;2.20;1.83;;;5.20;99.90;;;;;;5020018;28;20636;-74
2020/12/27 09:41:16;;;;;;;2.10;1.87;;;5.30;99.90;;;;;;5021411;28;20661;-72
2020/12/27 09:44:05;;;;;;;2.20;2.00;;;5.20;99.90;;;;;;5040777;28;20614;-72
2020/12/27 09:46:58;;;;;;;2.50;2.30;;;5.20;99.90;;;;;;5026824;28;21192;-72
2020/12/27 09:49:42;;;;;;;2.60;2.03;;;5.20;99.90;;;;;;5020519;28;20822;-71
2020/12/27 09:52:27;;;;;;;2.30;2.10;;;5.30;99.90;;;;;;5022784;28;20737;-70
2020/12/27 09:55:12;;;;;;;2.13;2.00;;;5.30;99.90;;;;;;5027594;28;20716;-71
2020/12/27 09:57:57;;;;;;;1.80;1.70;;;5.30;99.90;;;;;;5020233;28;20618;-71
2020/12/27 10:00:41;;;;;;;2.43;1.90;;;5.40;99.90;;;;;;5019063;28;20656;-71
2020/12/27 10:03:26;;;;;;;2.17;2.00;;;5.30;99.90;;;;;;5016462;28;20684;-71
2020/12/27 10:06:16;;;;;;;2.10;1.93;;;5.40;99.90;;;;;;5026835;28;20632;-71
2020/12/27 10:09:01;;;;;;;2.03;1.83;;;5.40;99.90;;;;;;5023422;28;21342;-71
2020/12/27 10:11:45;;;;;;;2.13;1.93;;;5.50;99.90;;;;;;5028666;28;20990;-70
2020/12/27 10:14:30;;;;;;;2.20;2.00;;;5.60;99.90;;;;;;5031135;28;21206;-70
2020/12/27 10:17:15;;;;;;;3.63;1.70;;;5.60;99.90;;;;;;5023603;28;21164;-71
2020/12/27 10:20:00;;;;;;;1.90;1.80;;;5.60;99.90;;;;;;5027628;28;21260;-70
2020/12/27 10:22:44;;;;;;;2.17;1.60;;;5.60;99.90;;;;;;5022751;28;20701;-70
2020/12/27 10:25:29;;;;;;;1.50;1.40;;;5.60;99.90;;;;;;5031045;28;20657;-70
2020/12/27 10:28:13;;;;;;;1.80;1.70;;;5.60;99.90;;;;;;5035570;28;20605;-70
2020/12/27 10:30:58;;;;;;;1.80;1.53;;;5.60;99.90;;;;;;5026257;28;20697;-70
2020/12/27 10:33:43;;;;;;;1.40;1.30;;;5.50;99.90;;;;;;5031046;28;20634;-70
2020/12/27 10:36:27;;;;;;;1.97;1.60;;;5.50;99.90;;;;;;5039153;28;20729;-70
2020/12/27 10:39:12;;;;;;;2.57;1.80;;;5.50;99.90;;;;;;5033193;28;20657;-70
2020/12/27 10:41:57;;;;;;;1.63;1.53;;;5.60;99.90;;;;;;5027418;28;20787;-70
2020/12/27 10:44:42;;;;;;;1.80;1.70;;;5.60;99.90;;;;;;5025633;28;20605;-71
2020/12/27 10:47:27;;;;;;;2.17;1.63;;;5.60;99.90;;;;;;5032280;28;20944;-71
2020/12/27 10:50:12;;;;;;;1.83;1.40;;;5.60;99.90;;;;;;5032670;28;20683;-71
2020/12/27 10:52:56;;;;;;;2.43;1.70;;;5.60;99.90;;;;;;5028212;28;20634;-70
2020/12/27 10:55:46;;;;;;;2.00;1.43;;;5.60;99.90;;;;;;5034092;28;20669;-70
2020/12/27 10:58:31;;;;;;;1.60;1.50;;;5.70;99.90;;;;;;5028370;28;20617;-71
2020/12/27 11:01:16;;;;;;;1.70;1.30;;;5.70;99.90;;;;;;5026701;28;20657;-70
2020/12/27 11:04:00;;;;;;;1.50;1.40;;;5.70;99.90;;;;;;5032245;28;20618;-70
2020/12/27 11:06:45;;;;;;;1.57;1.40;;;5.70;99.90;;;;;;5024824;28;21133;-70
2020/12/27 11:09:29;;;;;;;2.90;1.80;;;5.70;99.90;;;;;;5031760;28;20786;-70
2020/12/27 11:12:14;;;;;;;1.60;1.50;;;5.80;99.90;;;;;;5025290;28;20646;-71
2020/12/27 11:14:58;;;;;;;1.70;1.60;;;5.80;99.90;;;;;;5044243;28;20570;-70
2020/12/27 11:17:43;;;;;;;1.40;1.30;;;5.90;99.90;;;;;;5033321;28;20608;-70
2020/12/27 11:20:28;;;;;;;1.50;1.40;;;5.90;99.90;;;;;;5031764;28;21318;-70
2020/12/27 11:23:12;;;;;;;1.67;1.57;;;5.90;99.90;;;;;;5026857;28;20723;-71
2020/12/27 11:25:57;;;;;;;1.80;1.40;;;5.90;99.90;;;;;;5015354;28;20834;-71
2020/12/27 11:28:41;;;;;;;1.40;1.30;;;6.00;99.90;;;;;;5044554;28;20987;-71
2020/12/27 11:31:26;;;;;;;2.23;1.60;;;5.90;99.90;;;;;;5013263;28;21349;-70
2020/12/27 11:34:10;;;;;;;1.47;1.37;;;5.90;99.90;;;;;;5024249;28;20681;-71
2020/12/27 11:36:55;;;;;;;1.47;1.17;;;5.90;99.90;;;;;;5026053;28;21170;-70
2020/12/27 11:39:39;;;;;;;1.60;1.50;;;5.90;99.90;;;;;;5022409;28;21648;-70
2020/12/27 11:42:25;;;;;;;1.77;1.67;;;6.00;99.90;;;;;;5020934;28;20655;-71
2020/12/27 11:45:11;;;;;;;1.60;1.50;;;6.00;99.90;;;;;;5028634;28;21149;-71
2020/12/27 11:47:56;;;;;;;2.27;1.47;;;6.00;99.90;;;;;;5037657;28;20647;-71
2020/12/27 11:50:43;;;;;;;2.53;1.73;;;6.10;99.90;;;;;;5018784;28;20642;-71
2020/12/27 11:53:27;;;;;;;4.40;1.80;;;6.10;99.90;;;;;;5033665;28;20634;-74
2020/12/27 11:56:19;;;;;;;1.60;1.50;;;6.10;99.90;;;;;;5027515;28;21152;-73
2020/12/27 11:59:04;;;;;;;1.70;1.60;;;6.20;99.90;;;;;;5063839;28;20673;-72
2020/12/27 12:01:51;;;;;;;1.60;1.50;;;6.20;99.90;;;;;;5039278;28;20889;-71
2020/12/27 12:04:36;;;;;;;1.53;1.43;;;6.20;99.90;;;;;;5028412;28;20621;-74
2020/12/27 12:07:20;;;;;;;2.40;1.80;;;6.20;99.90;;;;;;5029784;28;21056;-74
2020/12/27 12:10:05;;;;;;;1.47;1.37;;;6.20;99.90;;;;;;5034826;28;20637;-71
2020/12/27 12:12:49;;;;;;;1.47;1.33;;;6.30;99.90;;;;;;5020451;28;21012;-71
2020/12/27 12:15:33;;;;;;;1.67;1.40;;;6.30;99.90;;;;;;5027230;28;21346;-71
2020/12/27 12:18:18;;;;;;;1.40;1.30;;;6.30;99.90;;;;;;5029188;28;20972;-70
2020/12/27 12:21:04;;;;;;;3.00;1.70;;;6.30;99.90;;;;;;5023176;28;21476;-71
2020/12/27 12:23:48;;;;;;;1.57;1.47;;;6.30;99.90;;;;;;5035175;28;20617;-70
2020/12/27 12:26:33;;;;;;;2.00;1.80;;;6.30;99.90;;;;;;5025679;28;20812;-70
2020/12/27 12:29:18;;;;;;;1.77;1.63;;;6.30;99.90;;;;;;5024853;28;21037;-70
2020/12/27 12:32:02;;;;;;;1.67;1.40;;;6.40;99.90;;;;;;5022009;28;20980;-70
2020/12/27 12:34:47;;;;;;;2.30;1.63;;;6.30;99.90;;;;;;5033049;28;20667;-71
2020/12/27 12:37:31;;;;;;;1.83;1.73;;;6.20;99.90;;;;;;5022073;28;20671;-70
2020/12/27 12:40:16;;;;;;;1.57;1.47;;;6.20;99.90;;;;;;5030838;28;20743;-70
2020/12/27 12:43:01;;;;;;;1.97;1.77;;;6.20;99.90;;;;;;5022052;28;20744;-71
2020/12/27 12:45:45;;;;;;;1.70;1.60;;;6.30;99.90;;;;;;5039305;28;20737;-71
2020/12/27 12:48:30;;;;;;;2.20;2.00;;;6.30;99.90;;;;;;5031217;28;21205;-73
2020/12/27 12:51:16;;;;;;;2.17;1.97;;;6.20;99.90;;;;;;5036344;28;20657;-73
2020/12/27 12:54:03;;;;;;;2.40;2.20;;;6.20;99.90;;;;;;5026044;28;20626;-73
2020/12/27 12:56:51;;;;;;;1.80;1.70;;;6.10;99.90;;;;;;5026688;28;21444;-72
2020/12/27 12:59:35;;;;;;;2.27;2.07;;;6.10;99.90;;;;;;5029903;28;20796;-72
2020/12/27 13:02:20;;;;;;;2.47;2.00;;;6.00;99.90;;;;;;5023107;28;20651;-72
2020/12/27 13:05:04;;;;;;;1.63;1.53;;;6.00;99.90;;;;;;5033090;28;20996;-72
2020/12/27 13:07:48;;;;;;;2.40;1.70;;;5.90;99.90;;;;;;5026716;28;21251;-72
2020/12/27 13:10:33;;;;;;;2.73;2.20;;;5.80;99.90;;;;;;5025090;28;20739;-72
2020/12/27 13:13:18;;;;;;;2.40;2.10;;;5.70;99.90;;;;;;5029554;28;21087;-74
2020/12/27 13:16:02;;;;;;;3.60;2.30;;;5.60;99.90;;;;;;5038581;28;20785;-73
2020/12/27 13:18:47;;;;;;;2.13;2.03;;;5.60;99.90;;;;;;5028647;28;20871;-73
2020/12/27 13:21:32;;;;;;;2.57;2.37;;;5.60;99.90;;;;;;5041535;28;20652;-72
2020/12/27 13:24:16;;;;;;;2.60;2.40;;;5.70;99.90;;;;;;5019945;28;20611;-72
2020/12/27 13:27:01;;;;;;;2.60;2.40;;;5.60;99.90;;;;;;5030122;28;20951;-70
2020/12/27 13:29:46;;;;;;;2.80;2.60;;;5.70;99.90;;;;;;5023401;28;20653;-71
2020/12/27 13:32:30;;;;;;;2.67;2.17;;;5.60;99.90;;;;;;5013602;28;20697;-71
2020/12/27 13:35:15;;;;;;;3.80;2.40;;;5.50;99.90;;;;;;5026057;28;20663;-70
2020/12/27 13:37:59;;;;;;;2.37;2.17;;;5.60;99.90;;;;;;5019373;28;20733;-69
2020/12/27 13:40:44;;;;;;;2.20;1.97;;;5.60;99.90;;;;;;5022449;28;20657;-70
2020/12/27 13:43:29;;;;;;;2.23;1.90;;;5.60;99.90;;;;;;5023325;28;20641;-71
2020/12/27 13:46:16;;;;;;;3.60;3.13;;;5.50;99.90;;;;;;5026381;28;20781;-70
2020/12/27 13:49:00;;;;;;;2.40;2.10;;;5.40;99.90;;;;;;5031981;28;21265;-71
2020/12/27 13:51:45;;;;;;;2.40;2.20;;;5.50;99.90;;;;;;5018485;28;21004;-71
2020/12/27 13:54:29;;;;;;;3.13;2.47;;;5.40;99.90;;;;;;5027812;28;21132;-71
2020/12/27 13:57:14;;;;;;;2.30;2.10;;;5.40;99.90;;;;;;5027564;28;21259;-72
2020/12/27 13:59:58;;;;;;;2.17;1.97;;;5.40;99.90;;;;;;5017785;28;20648;-72
2020/12/27 14:02:43;;;;;;;2.50;2.30;;;5.20;99.90;;;;;;5026881;28;20653;-71
2020/12/27 14:05:29;;;;;;;2.53;2.20;;;5.30;99.90;;;;;;5025300;28;20581;-71
2020/12/27 14:08:14;;;;;;;2.53;2.33;;;5.20;99.90;;;;;;5038213;28;20970;-73
2020/12/27 14:10:58;;;;;;;2.90;2.70;;;5.20;99.90;;;;;;5015681;28;20709;-72
2020/12/27 14:13:43;;;;;;;2.73;2.40;;;5.30;99.90;;;;;;5023878;28;20632;-73
2020/12/27 14:16:28;;;;;;;3.40;2.30;;;5.20;99.90;;;;;;5027390;28;20685;-70
2020/12/27 14:19:13;;;;;;;2.10;2.00;;;5.20;99.90;;;;;;5040648;28;20661;-70
2020/12/27 14:21:57;;;;;;;3.00;2.50;;;5.10;99.90;;;;;;5022930;28;21097;-71
2020/12/27 14:24:42;;;;;;;3.30;2.40;;;5.10;99.90;;;;;;5017082;28;21184;-72
2020/12/27 14:27:26;;;;;;;2.50;2.30;;;5.10;99.90;;;;;;5026776;28;20578;-71
2020/12/27 14:30:11;;;;;;;2.60;2.40;;;5.20;99.90;;;;;;5041627;28;20676;-72
2020/12/27 14:32:55;;;;;;;2.43;2.30;;;5.10;99.90;;;;;;5016337;28;20771;-71
2020/12/27 14:35:41;;;;;;;2.23;2.03;;;5.10;99.90;;;;;;5031307;28;20593;-70
2020/12/27 14:38:26;;;;;;;2.47;2.27;;;5.20;99.90;;;;;;5035896;28;20675;-72